Date,TemperatureHighF,TemperatureAvgF,TemperatureLowF,DewpointHighF,DewpointAvgF,DewpointLowF,HumidityHigh,HumidityAvg,HumidityLow,PressureMaxIn,PressureMinIn,WindSpeedMaxMPH,WindSpeedAvgMPH,GustSpeedMaxMPH,PrecipitationSumIn
2013-1-1,30.8,25.4,12.8,26.0,17.2,4.0,83,71,61,29.93,29.75,16,3,0,0.00
2013-1-2,23.9,12.4,2.4,16.0,6.3,-3.0,90,77,64,30.14,29.93,14,2,0,0.00
2013-1-3,19.6,7.4,-4.1,7.0,-1.6,-10.0,85,68,45,30.18,30.06,11,1,0,0.00
2013-1-4,32.8,23.0,7.0,24.0,17.1,5.0,93,79,68,30.04,29.86,11,3,0,0.00
2013-1-5,35.8,28.6,16.8,25.0,20.5,14.0,89,72,53,30.28,29.88,16,2,0,0.04
2013-1-6,35.8,27.2,17.4,28.0,23.4,14.0,94,86,72,30.24,29.98,8,1,0,0.02
2013-1-7,33.3,24.1,11.0,25.0,18.4,9.0,97,80,51,30.42,30.02,8,1,0,0.01
2013-1-8,38.9,27.6,10.4,28.0,22.1,8.0,92,80,64,30.41,30.31,9,2,0,0.04
2013-1-9,39.6,29.5,15.9,34.0,25.1,15.0,95,84,57,30.42,30.06,8,2,0,0.20
2013-1-10,40.7,34.6,26.4,29.0,24.6,22.0,83,68,54,30.56,30.09,12,3,0,0.07
2013-1-11,34.2,28.7,19.5,33.0,25.0,17.0,98,86,64,30.55,30.23,4,1,0,0.04
2013-1-12,40.8,36.9,33.2,41.0,36.7,33.0,99,99,97,30.23,30.15,2,0,0,0.32
2013-1-13,45.6,41.3,35.9,46.0,41.3,36.0,100,100,99,30.17,30.01,10,2,0,0.06
2013-1-14,49.4,42.4,32.9,48.0,40.0,29.0,100,91,66,30.28,29.88,11,2,0,0.02
2013-1-15,35.8,31.0,25.7,28.0,25.6,24.0,94,81,65,30.34,30.24,4,0,0,0.00
2013-1-16,30.6,29.0,26.2,30.0,27.3,23.0,97,93,75,30.27,29.85,5,0,0,0.00
2013-1-17,36.1,29.6,22.9,31.0,24.7,12.0,97,82,63,30.11,29.86,5,1,0,0.16
2013-1-18,22.8,15.8,10.1,13.0,3.0,-1.0,73,58,42,30.46,30.07,12,2,0,0.00
2013-1-19,40.0,30.6,15.9,29.0,20.1,6.0,77,65,55,30.39,29.90,14,5,0,0.07
2013-1-20,45.3,34.7,22.7,31.0,23.9,9.0,81,66,48,29.93,29.57,29,6,0,0.10
2013-1-21,22.0,18.5,13.6,16.0,9.7,4.0,92,70,55,30.09,29.82,9,1,0,0.00
2013-1-22,17.6,13.1,4.7,15.0,4.8,-5.0,92,71,47,30.10,29.79,10,2,0,0.00
2013-1-23,9.6,4.1,-1.7,-1.0,-7.3,-10.0,78,60,44,30.17,30.08,9,2,0,0.00
2013-1-24,14.8,3.7,-9.0,-5.0,-8.6,-14.0,82,59,40,30.29,30.13,14,2,0,0.00
2013-1-25,18.1,9.8,0.7,9.0,-4.4,-10.0,85,54,35,30.36,30.09,6,1,0,0.00
2013-1-26,19.2,10.6,3.6,8.0,1.1,-6.0,89,68,41,30.28,30.04,11,2,0,0.00
2013-1-27,26.4,13.3,2.6,5.0,1.6,-2.0,84,62,36,30.52,30.28,10,1,0,0.00
2013-1-28,24.5,17.7,6.6,22.0,12.6,2.0,94,81,49,30.50,30.05,3,0,0,0.00
2013-1-29,31.5,27.4,22.5,31.0,26.0,21.0,98,94,90,30.21,30.05,4,0,0,0.01
2013-1-30,54.7,46.0,31.6,55.0,45.9,31.0,100,99,98,30.16,29.44,15,4,0,0.44
2013-1-31,57.8,40.6,24.6,57.0,34.2,16.0,99,79,55,29.58,29.00,20,7,0,0.87
2013-2-1,27.0,22.5,16.3,15.0,8.9,4.0,67,56,46,30.10,29.58,11,4,0,0.00
2013-2-2,24.2,18.4,10.1,15.0,6.5,2.0,83,60,46,30.26,30.07,11,2,0,0.00
2013-2-3,24.3,19.8,11.3,19.0,16.0,9.0,100,85,75,30.08,29.76,4,0,0,0.00
2013-2-4,23.0,17.8,13.2,13.0,9.7,6.0,91,71,53,29.96,29.76,7,2,0,0.00
2013-2-5,27.3,20.1,14.8,18.0,12.4,7.0,91,73,57,30.04,29.95,6,1,0,0.00
2013-2-6,31.5,23.9,18.2,24.0,16.0,4.0,94,74,50,30.31,29.94,8,2,0,0.01
2013-2-7,26.1,18.4,6.6,7.0,4.3,2.0,87,56,41,30.55,30.32,7,1,0,0.00
2013-2-8,22.5,19.2,14.1,20.0,15.3,7.0,93,85,57,30.50,29.70,18,5,0,0.00
2013-2-9,19.3,13.9,8.7,17.0,11.9,6.0,93,91,88,30.25,29.68,22,5,0,0.00
2013-2-10,31.0,15.9,4.4,24.0,11.7,1.0,89,83,68,30.47,30.25,9,1,0,0.07
2013-2-11,41.0,25.8,9.9,41.0,23.7,7.0,99,91,76,30.39,29.75,6,1,0,0.26
2013-2-12,37.5,33.7,30.8,33.0,28.2,24.0,99,80,69,29.90,29.66,10,4,0,0.00
2013-2-13,37.3,31.0,27.3,25.0,23.3,22.0,84,73,58,29.88,29.75,6,2,0,0.00
2013-2-14,38.9,28.5,18.7,24.0,21.3,17.0,95,76,50,29.93,29.73,7,0,0,0.00
2013-2-15,47.3,38.7,26.6,32.0,29.5,25.0,94,71,54,30.00,29.93,18,3,0,0.00
2013-2-16,35.8,30.0,23.7,28.0,24.2,15.0,95,80,61,29.98,29.75,8,1,0,0.11
2013-2-17,23.2,17.1,10.8,13.0,5.8,0.0,86,62,51,29.75,29.46,20,5,0,0.00
2013-2-18,25.8,16.1,7.7,4.0,0.8,-2.0,66,52,35,30.20,29.75,15,4,0,0.00
2013-2-19,42.5,30.2,12.6,39.0,22.9,2.0,97,75,56,30.22,29.61,16,2,0,0.23
2013-2-20,35.2,26.2,20.6,35.0,18.3,10.0,97,73,53,29.81,29.59,15,4,0,0.01
2013-2-21,28.7,21.9,18.2,16.0,12.7,9.0,83,68,55,30.28,29.79,22,4,0,0.01
2013-2-22,35.7,26.8,13.7,22.0,18.5,11.0,93,72,51,30.42,30.28,10,1,0,0.00
2013-2-23,32.1,29.9,27.4,30.0,26.7,22.0,97,88,79,30.35,29.93,8,1,0,0.00
2013-2-24,32.5,31.2,29.2,32.0,30.4,29.0,98,97,95,29.92,29.75,9,2,0,0.27
2013-2-25,34.9,30.4,22.7,32.0,29.2,22.0,98,95,90,30.27,29.92,3,0,0,0.15
2013-2-26,38.3,33.0,30.1,33.0,29.5,27.0,98,87,72,30.35,30.16,10,2,0,0.26
2013-2-27,37.9,33.2,31.0,37.0,32.2,28.0,98,96,88,30.17,29.61,21,8,0,1.23
2013-2-28,39.7,32.9,29.2,37.0,31.9,29.0,98,96,90,29.65,29.57,7,0,0,0.07
2013-3-1,37.4,32.7,28.6,32.0,28.7,26.0,98,85,71,29.72,29.56,9,1,0,0.00
2013-3-2,35.8,31.8,28.4,28.0,26.2,24.0,85,80,72,29.71,29.66,6,2,0,0.00
2013-3-3,33.3,29.0,25.9,28.0,25.0,22.0,92,85,78,29.68,29.61,7,2,0,0.01
2013-3-4,35.3,28.4,22.4,25.0,21.9,18.0,85,77,63,29.80,29.64,9,3,0,0.02
2013-3-5,41.0,31.3,24.0,29.0,24.5,20.0,90,77,60,30.10,29.80,13,2,0,0.00
2013-3-6,33.8,31.3,28.4,32.0,30.1,27.0,97,95,90,30.12,30.06,23,6,0,0.19
2013-3-7,30.4,28.2,26.4,29.0,27.0,25.0,97,95,91,30.10,30.04,17,5,0,0.08
2013-3-8,33.7,29.5,26.8,33.0,28.0,24.0,98,94,81,30.21,29.98,11,3,0,0.10
2013-3-9,52.0,35.3,23.3,27.0,21.7,15.0,93,64,24,30.37,30.20,8,1,0,0.21
2013-3-10,44.7,32.4,17.3,31.0,25.9,16.0,96,79,55,30.43,30.32,5,1,0,0.01
2013-3-11,49.0,38.7,30.7,40.0,32.9,29.0,94,81,55,30.34,30.16,8,2,0,0.00
2013-3-12,49.8,46.2,40.9,50.0,45.3,40.0,99,96,90,30.15,29.73,12,3,0,0.59
2013-3-13,44.1,35.9,27.0,40.0,28.5,21.0,98,77,46,29.81,29.74,12,2,0,0.00
2013-3-14,31.6,25.3,17.5,25.0,14.8,7.0,77,65,54,29.87,29.75,11,3,0,0.00
2013-3-15,34.7,24.5,12.1,28.0,15.1,7.0,90,69,40,29.90,29.69,11,3,0,0.00
2013-3-16,33.4,27.8,19.7,25.0,16.5,11.0,88,65,43,29.91,29.73,7,1,0,0.00
2013-3-17,33.1,24.0,12.9,16.0,10.9,5.0,91,61,35,30.34,29.90,14,2,0,0.00
2013-3-18,34.4,22.6,7.0,23.0,7.5,1.0,91,56,28,30.48,30.25,7,1,0,0.00
2013-3-19,31.1,28.0,24.3,30.0,26.9,23.0,97,96,91,30.24,29.67,15,4,0,0.05
2013-3-20,32.4,25.0,18.1,23.0,20.1,16.0,95,82,63,29.84,29.73,9,2,0,0.15
2013-3-21,35.2,22.7,12.1,22.0,-0.6,-99.9,93,58,45,29.84,29.64,6,1,0,0.20
2013-3-22,35.2,26.7,16.8,21.0,17.3,12.0,82,68,53,29.79,29.65,7,2,0,0.12
2013-3-23,37.3,30.1,21.1,21.0,19.5,17.0,87,66,49,29.84,29.70,14,3,0,0.09
2013-3-24,43.3,13.8,29.5,25.0,-57.8,-99.9,66,18,48,29.85,29.76,8,1,0,0.03
2013-3-25,39.1,12.3,35.3,28.0,-59.2,-99.9,74,22,62,29.78,29.53,13,3,0,0.00
2013-3-26,44.3,18.7,26.2,29.0,-36.1,-99.9,84,32,43,29.82,29.57,10,1,0,0.01
2013-3-27,47.4,34.3,18.5,29.0,23.8,16.0,92,68,41,29.92,29.81,12,1,0,0.00
2013-3-28,46.3,37.3,32.0,33.0,30.9,28.0,95,79,51,30.07,29.92,5,1,0,0.02
2013-3-29,51.4,38.5,27.1,35.0,30.3,26.0,96,75,45,30.09,30.02,5,1,0,0.00
2013-3-30,51.6,38.9,26.2,30.0,24.4,19.0,95,62,29,30.14,30.05,11,1,0,0.00
2013-3-31,53.0,38.9,22.3,38.0,27.0,20.0,94,68,34,30.15,29.75,12,2,0,0.10
2013-4-1,54.6,39.4,28.8,43.0,33.2,14.0,98,80,49,29.82,29.55,13,3,0,0.32
2013-4-2,33.6,28.7,23.9,19.0,14.4,11.0,70,56,43,29.97,29.83,12,4,0,0.00
2013-4-3,40.3,31.2,24.0,19.0,14.6,12.0,73,52,34,30.20,29.96,12,5,0,0.00
2013-4-4,49.9,37.3,22.7,24.0,18.1,14.0,76,49,29,30.33,30.07,11,3,0,0.00
2013-4-5,56.8,41.0,31.9,28.0,25.6,22.0,82,58,27,30.07,29.70,8,3,0,0.00
2013-4-6,42.2,33.1,25.9,25.0,13.0,7.0,72,47,24,30.36,29.91,17,-77,0,0.00
2013-4-7,53.5,40.7,23.0,38.0,27.0,17.0,89,61,36,30.36,30.03,17,5,0,0.00
2013-4-8,62.6,48.7,37.3,41.0,37.8,33.0,97,70,36,30.10,29.99,12,2,0,0.00
2013-4-9,65.3,51.6,41.8,52.0,43.4,40.0,98,76,49,30.08,29.90,10,2,0,0.04
2013-4-10,60.9,50.4,43.3,51.0,46.5,41.0,98,87,65,30.01,29.86,4,1,0,0.35
2013-4-11,50.4,44.4,36.2,47.0,37.0,26.0,98,77,47,30.15,29.85,6,1,0,0.05
2013-4-12,36.9,33.0,31.3,32.0,31.2,29.0,98,93,72,30.16,29.83,17,5,0,0.49
2013-4-13,50.9,39.6,31.5,39.0,34.8,31.0,98,84,55,29.98,29.80,7,1,0,0.19
2013-4-14,48.3,38.7,27.9,38.0,31.2,25.0,98,77,47,30.26,29.95,9,2,0,0.01
2013-4-15,56.5,41.1,25.0,37.0,30.5,24.0,96,70,44,30.42,30.26,5,1,0,0.00
2013-4-16,64.4,48.9,33.2,51.0,41.0,29.0,91,76,50,30.41,30.09,20,4,0,0.04
2013-4-17,63.1,52.9,44.3,51.0,36.9,29.0,96,59,31,30.35,30.10,18,3,0,0.01
2013-4-18,59.9,49.5,38.6,45.0,33.2,27.0,86,55,40,30.43,30.15,15,3,0,0.00
2013-4-19,71.5,59.9,48.5,62.0,56.4,45.0,99,89,66,30.16,29.65,19,5,0,0.02
2013-4-20,62.6,47.4,35.8,61.0,38.0,22.0,98,73,44,30.24,29.63,9,3,0,0.47
2013-4-21,50.3,38.1,26.9,25.0,21.3,18.0,78,54,30,30.70,30.25,9,-332,0,0.00
2013-4-22,49.4,38.4,27.2,31.0,26.8,20.0,93,66,35,30.77,30.61,14,4,0,0.00
2013-4-23,37.4,35.2,32.7,37.0,33.5,29.0,99,93,80,30.61,30.15,10,4,0,0.00
2013-4-24,71.2,53.5,37.4,50.0,42.8,37.0,99,73,32,30.14,29.82,13,3,0,0.00
2013-4-25,59.5,49.1,34.0,50.0,35.7,27.0,96,64,31,30.30,29.84,10,2,0,0.09
2013-4-26,59.6,47.7,31.5,37.0,31.8,26.0,92,56,37,30.44,30.31,12,2,0,0.00
2013-4-27,62.2,48.3,30.5,39.0,34.1,29.0,96,62,36,30.44,30.30,5,1,0,0.00
2013-4-28,70.3,52.3,33.6,42.0,35.8,28.0,97,59,31,30.35,30.21,8,1,0,0.00
2013-4-29,67.0,53.5,41.2,46.0,35.9,26.0,83,54,35,30.28,30.20,7,2,0,0.00
2013-4-30,70.0,56.3,43.7,39.0,30.2,24.0,73,40,23,30.36,30.26,9,1,0,0.00
2013-5-1,70.7,53.4,33.2,38.0,33.8,31.0,93,53,28,30.49,30.36,7,1,0,0.00
2013-5-2,78.2,55.9,38.0,46.0,39.3,34.0,96,60,27,30.49,30.33,12,2,0,0.00
2013-5-3,61.9,49.3,38.2,44.0,40.0,35.0,94,72,52,30.52,30.41,11,2,0,0.00
2013-5-4,65.5,49.5,36.0,46.0,36.3,21.0,98,66,24,30.40,30.30,10,2,0,0.00
2013-5-5,64.4,47.9,31.1,41.0,35.7,30.0,97,67,37,30.34,30.25,7,1,0,0.00
2013-5-6,72.1,52.6,31.1,50.0,39.6,30.0,98,68,28,30.30,30.15,5,1,0,0.00
2013-5-7,77.6,60.3,40.2,56.0,48.5,39.0,99,70,34,30.20,30.10,7,1,0,0.00
2013-5-8,67.4,58.6,49.2,62.0,56.8,48.0,99,94,75,30.20,30.05,7,1,0,0.87
2013-5-9,63.7,57.5,53.7,59.0,56.6,54.0,100,96,80,30.06,29.89,5,0,0,0.41
2013-5-10,75.5,62.3,49.9,61.0,54.6,50.0,100,79,49,29.98,29.92,5,1,0,0.00
2013-5-11,61.9,59.7,56.5,61.0,58.1,54.0,99,94,80,29.92,29.70,9,2,0,0.34
2013-5-12,65.2,55.6,42.9,59.0,48.4,32.0,100,78,49,29.82,29.59,7,1,0,0.02
2013-5-13,52.0,44.0,35.5,33.0,30.3,28.0,86,60,43,30.07,29.82,6,2,0,0.00
2013-5-14,54.7,44.5,34.2,35.0,31.7,29.0,89,63,39,30.09,30.02,8,1,0,0.00
2013-5-15,60.4,45.1,29.7,51.0,38.4,29.0,100,81,42,30.09,29.73,9,2,0,0.08
2013-5-16,76.6,62.0,41.8,50.0,42.5,35.0,99,57,28,29.82,29.68,11,2,0,0.00
2013-5-17,65.5,54.6,41.7,44.0,40.5,36.0,91,62,37,30.24,29.82,9,1,0,0.00
2013-5-18,68.6,55.2,37.5,49.0,42.1,36.0,97,66,36,30.33,30.24,6,1,0,0.00
2013-5-19,66.2,54.4,43.8,55.0,49.8,43.0,98,86,58,30.35,30.22,6,1,0,0.11
2013-5-20,76.9,63.5,53.0,66.0,59.6,53.0,100,88,65,30.21,29.96,4,1,0,0.02
2013-5-21,83.9,63.9,48.1,69.0,59.2,47.0,99,86,58,30.08,29.85,10,2,0,0.00
2013-5-22,73.6,58.5,47.9,69.0,56.8,47.0,100,94,82,30.05,29.87,6,1,0,0.65
2013-5-23,69.7,62.5,54.2,68.0,62.3,54.0,100,99,93,29.92,29.80,8,2,0,1.60
2013-5-24,64.2,57.2,44.1,64.0,56.5,44.0,100,97,88,29.85,29.65,6,1,0,0.87
2013-5-25,46.3,42.3,36.9,46.0,41.9,36.0,99,98,97,29.84,29.76,8,2,0,0.44
2013-5-26,51.5,43.1,34.7,42.0,38.7,34.0,98,85,63,30.15,29.77,11,2,0,0.03
2013-5-27,66.7,50.6,33.1,45.0,39.4,33.0,99,71,34,30.21,30.13,7,1,0,0.00
2013-5-28,71.8,57.0,39.5,53.0,44.4,39.0,97,68,36,30.26,30.17,6,0,0,0.00
2013-5-29,69.1,60.4,54.8,66.0,59.4,53.0,99,96,88,30.19,30.00,4,0,0,1.14
2013-5-30,81.9,70.1,59.0,70.0,65.0,59.0,100,85,60,30.12,30.04,6,1,0,0.00
2013-5-31,88.8,74.1,57.8,73.0,64.7,57.0,100,76,46,30.12,29.96,5,1,0,0.00
2013-6-1,87.5,77.2,62.2,70.0,66.8,62.0,98,73,48,30.00,29.87,9,2,0,0.00
2013-6-2,86.7,73.7,65.4,70.0,66.6,64.0,99,81,47,29.89,29.72,19,3,0,0.11
2013-6-3,72.4,64.5,50.8,67.0,60.9,45.0,100,89,65,29.86,29.78,9,1,0,0.38
2013-6-4,66.2,55.3,41.6,50.0,45.0,40.0,95,70,49,30.13,29.86,8,1,0,0.00
2013-6-5,71.0,56.8,41.7,53.0,47.4,41.0,99,75,40,30.22,30.12,6,0,0,0.00
2013-6-6,69.2,58.5,48.6,53.0,50.7,48.0,97,77,55,30.20,30.11,5,0,0,0.02
2013-6-7,53.9,51.9,49.2,54.0,51.2,49.0,99,97,96,30.12,29.83,8,2,0,0.25
2013-6-8,71.1,58.6,49.2,64.0,55.9,49.0,99,91,73,30.03,29.67,10,2,0,0.80
2013-6-9,74.1,61.3,48.4,59.0,54.8,48.0,100,81,52,30.20,30.04,7,1,0,0.79
2013-6-10,66.9,58.0,49.7,61.0,55.7,49.0,99,92,67,30.21,30.00,7,1,0,1.02
2013-6-11,60.3,55.4,52.7,59.0,54.9,53.0,99,98,94,30.00,29.59,11,1,0,0.79
2013-6-12,64.0,58.4,51.0,57.0,54.4,50.0,100,87,71,29.85,29.59,12,1,0,0.00
2013-6-13,58.4,51.2,44.8,58.0,50.6,44.0,100,97,95,29.85,29.70,7,1,0,1.13
2013-6-14,69.2,56.2,47.8,60.0,52.4,47.0,99,88,55,29.83,29.67,7,1,0,0.55
2013-6-15,74.8,59.7,45.1,53.0,49.8,45.0,99,74,40,29.97,29.84,6,1,0,0.00
2013-6-16,70.5,60.6,46.2,61.0,53.9,45.0,99,80,60,29.98,29.74,8,1,0,0.00
2013-6-17,79.2,64.4,53.2,65.0,59.2,52.0,99,85,54,29.92,29.80,7,1,0,0.63
2013-6-18,71.6,58.5,52.2,67.0,57.4,52.0,100,96,76,29.95,29.90,4,0,0,0.10
2013-6-19,69.7,59.0,49.2,56.0,50.9,45.0,99,77,45,30.18,29.93,4,0,0,0.00
2013-6-20,73.2,59.8,43.1,56.0,50.5,42.0,99,75,45,30.29,30.18,4,0,0,0.00
2013-6-21,79.5,65.0,50.9,65.0,58.3,50.0,99,81,50,30.28,30.22,3,0,0,0.00
2013-6-22,78.8,68.0,55.8,65.0,60.6,55.0,99,79,54,30.25,30.12,6,1,0,0.00
2013-6-23,85.3,72.9,59.0,73.0,65.8,57.0,93,79,63,30.18,30.01,11,2,0,0.00
2013-6-24,87.0,75.1,66.3,74.0,69.5,66.0,99,84,61,30.04,29.90,8,1,0,0.06
2013-6-25,84.5,73.6,63.6,73.0,68.0,63.0,100,84,64,29.96,29.74,6,1,0,0.00
2013-6-26,78.1,71.4,65.9,71.0,67.6,65.0,97,88,73,29.85,29.74,4,0,0,0.00
2013-6-27,72.3,67.0,62.5,69.0,66.0,63.0,100,96,89,29.85,29.74,5,0,0,0.00
2013-6-28,74.0,65.8,57.6,72.0,65.3,57.0,100,98,89,29.74,29.50,12,2,0,0.63
2013-6-29,78.7,71.0,65.6,70.0,67.8,65.0,100,90,71,29.72,29.51,9,1,0,0.01
2013-6-30,81.2,72.9,67.1,72.0,69.0,67.0,98,88,69,29.93,29.73,6,1,0,0.00
2013-7-1,74.5,70.7,68.5,73.0,70.4,68.0,100,98,91,30.08,29.94,3,0,0,2.07
2013-7-2,77.9,72.1,66.5,73.0,70.7,66.0,100,95,84,30.19,30.07,7,1,0,0.01
2013-7-3,82.6,73.3,64.7,74.0,70.2,64.0,100,90,72,30.22,30.15,5,1,0,0.00
2013-7-4,86.3,78.1,71.4,76.0,73.1,71.0,98,85,68,30.22,30.11,10,1,0,0.00
2013-7-5,86.6,78.9,70.4,76.0,73.2,70.0,99,83,67,30.17,30.05,9,1,0,0.00
2013-7-6,84.0,76.2,67.2,74.0,71.3,65.0,97,86,64,30.09,30.00,5,1,0,0.00
2013-7-7,87.1,72.8,64.0,76.0,69.5,64.0,99,90,65,30.05,29.93,2,0,0,0.02
2013-7-8,83.3,73.7,67.2,75.0,70.1,66.0,100,89,66,30.06,29.93,5,0,0,0.00
2013-7-9,72.8,68.1,64.4,69.0,66.7,64.0,99,95,88,30.10,30.04,5,0,0,0.00
2013-7-10,78.7,70.8,64.8,76.0,69.7,65.0,100,96,83,30.07,29.80,7,1,0,0.07
2013-7-11,78.7,73.5,70.8,72.0,71.0,68.0,99,92,74,29.90,29.79,4,0,0,0.00
2013-7-12,75.6,69.6,64.8,65.0,59.9,54.0,79,71,61,30.20,30.07,7,2,0,0.00
2013-7-13,73.2,68.1,62.9,71.0,64.6,55.0,99,89,68,30.32,30.21,5,0,0,0.01
2013-7-14,84.4,75.9,69.3,76.0,71.6,69.0,100,87,66,30.32,30.22,4,0,0,0.00
2013-7-15,88.5,75.2,65.1,75.0,70.1,65.0,100,85,57,30.23,30.12,5,0,0,0.00
2013-7-16,88.8,75.6,63.0,74.0,68.5,63.0,99,81,51,30.18,30.13,6,0,0,0.00
2013-7-17,90.3,77.0,64.4,74.0,69.9,64.0,100,81,55,30.19,30.02,4,0,0,0.00
2013-7-18,90.7,79.5,69.7,76.0,73.0,69.0,99,82,56,30.03,29.93,3,0,0,0.00
2013-7-19,90.7,80.3,69.3,77.0,73.5,69.0,100,81,59,29.95,29.73,9,2,0,0.00
2013-7-20,85.3,76.4,64.8,77.0,71.5,63.0,98,85,70,29.82,29.67,6,0,0,0.09
2013-7-21,82.0,70.2,59.0,68.0,64.0,59.0,99,82,54,29.99,29.83,4,0,0,0.00
2013-7-22,79.7,69.6,61.4,71.0,66.1,61.0,100,89,73,30.02,29.88,7,1,0,0.00
2013-7-23,77.3,69.3,65.6,75.0,69.0,65.0,100,99,89,29.87,29.55,6,1,0,2.02
2013-7-24,77.7,70.6,61.3,70.0,65.9,54.0,100,86,67,29.97,29.60,6,0,0,0.00
2013-7-25,60.7,57.5,53.8,57.0,53.4,48.0,97,86,75,30.12,29.97,4,0,0,0.04
2013-7-26,69.3,61.9,58.1,66.0,60.5,57.0,99,95,85,30.09,29.99,8,0,0,0.48
2013-7-27,78.0,65.7,52.4,68.0,60.8,52.0,100,86,59,30.09,30.01,2,0,0,0.00
2013-7-28,79.4,67.9,56.4,71.0,64.4,56.0,100,89,67,30.02,29.97,4,0,0,0.01
2013-7-29,80.8,70.7,61.1,70.0,65.3,60.0,100,85,54,30.06,29.97,5,1,0,0.00
2013-7-30,77.1,64.8,52.7,61.0,57.9,52.0,99,80,56,30.13,30.06,9,0,0,0.00
2013-7-31,77.7,65.1,52.9,64.0,58.5,52.0,99,82,55,30.16,30.06,3,0,0,0.00
2013-8-1,74.3,62.8,54.0,65.0,60.7,54.0,100,93,73,30.07,29.88,5,0,0,0.17
2013-8-2,76.4,66.9,60.5,67.0,62.5,59.0,100,87,58,29.89,29.81,4,0,0,1.12
2013-8-3,72.5,63.8,54.3,63.0,60.0,53.0,100,88,69,29.89,29.81,8,1,0,0.00
2013-8-4,54.2,51.8,50.6,53.0,51.1,50.0,99,98,96,29.86,29.84,0,0,0,0.00
2013-8-5,70.8,62.1,49.4,52.0,49.3,47.0,95,65,45,30.08,29.98,4,0,0,0.00
2013-8-6,74.4,59.3,44.3,59.0,52.3,44.0,99,80,49,30.17,30.08,3,0,0,0.00
2013-8-7,74.9,63.4,50.8,60.0,56.3,50.0,99,80,52,30.20,30.12,6,0,0,0.00
2013-8-8,75.9,68.5,63.4,71.0,66.3,60.0,99,93,84,30.12,30.02,6,1,0,0.00
2013-8-9,72.2,70.1,69.1,72.0,69.8,68.0,100,99,95,30.03,29.77,6,1,0,1.50
2013-8-10,76.3,67.0,54.1,69.0,61.5,53.0,100,84,55,30.03,29.82,8,1,0,0.01
2013-8-11,73.7,60.1,47.0,60.0,54.3,47.0,100,83,56,30.11,30.03,4,0,0,0.00
2013-8-12,76.8,63.7,52.7,63.0,57.8,52.0,100,83,55,30.06,29.95,5,0,0,0.00
2013-8-13,69.2,63.5,59.0,67.0,62.7,58.0,99,97,88,29.95,29.70,5,0,0,0.09
2013-8-14,67.6,60.0,51.6,63.0,54.6,50.0,100,83,64,29.99,29.70,5,1,0,0.00
2013-8-15,70.8,56.7,44.6,57.0,51.2,44.0,99,84,55,30.15,30.00,8,0,0,0.00
2013-8-16,73.6,59.5,46.5,59.0,53.2,46.0,99,82,54,30.23,30.14,4,0,0,0.00
2013-8-17,76.1,61.9,48.6,65.0,57.1,48.0,99,86,59,30.30,30.23,1,0,0,0.00
2013-8-18,74.0,63.4,53.1,66.0,59.9,53.0,100,89,62,30.30,30.12,2,0,0,0.00
2013-8-19,75.3,62.5,53.8,64.0,58.8,54.0,100,89,63,30.11,29.99,3,0,0,0.00
2013-8-20,80.1,66.2,53.5,67.0,60.8,53.0,100,84,54,30.13,30.03,4,0,0,0.00
2013-8-21,81.7,67.5,54.7,68.0,62.3,54.0,100,85,58,30.18,30.05,4,0,0,0.00
2013-8-22,80.9,69.5,57.6,72.0,65.8,57.0,100,88,66,30.06,29.85,6,1,0,0.00
2013-8-23,76.0,67.3,58.3,69.0,59.2,51.0,97,77,53,30.14,29.85,6,1,0,0.00
2013-8-24,73.3,60.1,49.7,56.0,51.3,47.0,95,75,49,30.36,30.15,4,0,0,0.00
2013-8-25,76.1,61.1,45.7,60.0,53.1,45.0,99,78,44,30.40,30.21,5,0,0,0.00
2013-8-26,74.8,66.1,58.0,67.0,62.3,56.0,97,88,75,30.21,29.90,5,1,0,0.04
2013-8-27,79.9,70.8,65.8,72.0,67.4,66.0,100,89,66,29.92,29.85,4,0,0,0.09
2013-8-28,82.4,70.3,61.1,71.0,66.1,61.0,100,87,57,29.96,29.86,2,0,0,0.00
2013-8-29,66.4,61.9,58.5,64.0,61.3,58.0,100,98,92,30.08,29.93,5,1,0,0.15
2013-8-30,76.8,65.9,57.8,69.0,63.5,57.0,100,92,73,30.05,29.85,4,0,0,0.00
2013-8-31,76.4,70.5,64.5,73.0,69.5,64.0,100,97,88,29.85,29.79,6,1,0,0.05
2013-9-1,74.2,70.5,66.0,73.0,70.0,66.0,100,98,94,29.89,29.81,5,0,0,0.20
2013-9-2,74.2,71.0,68.7,73.0,70.5,69.0,100,98,93,29.86,29.71,1,0,0,0.10
2013-9-3,74.7,67.3,58.6,70.0,65.3,56.0,100,93,82,29.84,29.71,4,0,0,0.00
2013-9-4,74.0,62.0,51.1,60.0,55.8,51.0,100,82,50,29.95,29.83,6,0,0,0.00
2013-9-5,65.7,57.0,46.5,60.0,51.2,43.0,100,83,48,30.17,29.89,7,0,0,0.02
2013-9-6,63.4,50.4,37.6,49.0,42.8,37.0,98,78,45,30.27,30.13,3,0,0,0.00
2013-9-7,71.7,57.0,42.0,59.0,50.7,41.0,99,82,50,30.13,29.89,3,0,0,0.00
2013-9-8,67.3,58.8,43.7,62.0,51.9,41.0,96,79,51,30.11,29.78,8,1,0,0.02
2013-9-9,63.3,50.4,35.3,51.0,43.6,34.0,98,80,51,30.26,30.11,4,0,0,0.00
2013-9-10,70.2,62.6,50.1,69.0,61.9,49.0,100,97,93,30.18,30.05,7,1,0,0.11
2013-9-11,87.3,76.5,67.5,77.0,72.2,68.0,100,88,63,30.09,29.96,5,1,0,0.00
2013-9-12,79.6,71.0,64.0,75.0,68.8,64.0,100,93,77,29.96,29.66,8,1,0,0.85
2013-9-13,71.5,63.7,55.1,67.0,61.9,52.0,100,94,81,29.78,29.60,6,1,0,0.03
2013-9-14,61.3,54.0,46.3,53.0,50.5,46.0,98,88,73,30.09,29.78,8,1,0,0.00
2013-9-15,64.6,52.1,39.4,54.0,47.3,39.0,99,85,53,30.20,30.08,3,0,0,0.00
2013-9-16,61.3,52.5,41.6,55.0,49.3,36.0,99,89,73,30.27,30.05,4,0,0,0.02
2013-9-17,57.1,45.4,32.3,46.0,38.3,31.0,97,78,52,30.45,30.27,6,0,0,0.00
2013-9-18,66.5,49.7,34.4,52.0,43.2,34.0,99,82,48,30.37,30.19,3,0,0,0.00
2013-9-19,73.0,55.3,39.6,57.0,48.9,39.0,99,82,49,30.19,30.08,3,0,0,0.00
2013-9-20,75.3,57.6,42.2,60.0,51.1,41.0,100,82,48,30.11,30.02,3,0,0,0.00
2013-9-21,69.2,60.6,47.6,64.0,57.7,47.0,99,90,75,30.05,29.73,9,2,0,0.00
2013-9-22,66.7,57.7,43.6,65.0,54.1,43.0,99,88,71,29.86,29.61,11,1,0,1.06
2013-9-23,56.7,46.6,39.2,45.0,41.5,38.0,98,84,63,30.04,29.86,7,1,0,0.00
2013-9-24,61.1,46.4,33.7,46.0,40.1,33.0,99,81,51,30.04,29.86,6,1,0,0.00
2013-9-25,65.2,51.5,36.6,54.0,46.4,36.0,99,84,64,30.01,29.91,6,0,0,0.00
2013-9-26,61.7,54.0,49.1,51.0,48.5,45.0,96,83,62,30.15,30.01,3,0,0,0.00
2013-9-27,60.5,54.2,45.0,53.0,50.1,44.0,96,86,71,30.30,30.15,3,0,0,0.00
2013-9-28,68.0,54.2,42.2,56.0,49.2,41.0,100,85,61,30.37,30.29,5,0,0,0.00
2013-9-29,63.8,51.0,40.2,55.0,45.7,39.0,100,84,56,30.29,30.14,5,0,0,0.00
2013-9-30,65.5,50.5,36.8,53.0,45.3,36.0,99,84,58,30.15,30.01,3,0,0,0.00
2013-10-1,71.6,55.1,38.5,59.0,49.9,38.0,100,85,57,30.01,29.90,4,0,0,0.00
2013-10-2,73.1,59.1,45.0,62.0,54.7,44.0,100,86,66,29.99,29.89,6,1,0,0.00
2013-10-3,70.5,56.5,44.1,56.0,50.4,43.0,99,82,44,30.12,29.99,3,0,0,0.00
2013-10-4,60.5,54.4,47.0,58.0,53.0,46.0,98,95,86,30.11,30.06,2,0,0,0.13
2013-10-5,65.6,59.3,55.4,60.0,57.1,55.0,99,92,80,30.14,30.08,1,0,0,0.02
2013-10-6,57.9,52.8,49.4,57.0,52.5,49.0,100,99,97,30.22,30.12,11,2,0,0.36
2013-10-7,71.3,60.3,52.8,69.0,59.6,53.0,100,98,85,30.14,29.81,11,2,0,0.30
2013-10-8,59.6,49.5,38.8,53.0,44.3,37.0,99,84,52,30.40,29.92,6,0,0,0.01
2013-10-9,57.3,47.7,38.2,46.0,41.7,37.0,96,81,62,30.50,30.39,9,1,0,0.00
2013-10-10,56.0,47.0,36.0,50.0,43.9,35.0,99,89,71,30.39,30.22,4,0,0,0.00
2013-10-11,65.9,54.6,45.5,55.0,46.2,38.0,96,76,37,30.21,30.13,6,0,0,0.00
2013-10-12,53.5,51.5,48.7,53.0,49.8,47.0,99,94,79,30.41,30.18,13,2,0,0.01
2013-10-13,53.2,48.3,40.5,49.0,46.2,40.0,97,92,83,30.47,30.39,7,1,0,0.00
2013-10-14,62.8,46.6,32.5,47.0,40.6,32.0,99,82,48,30.42,30.28,0,0,0,0.00
2013-10-15,64.0,55.2,47.2,55.0,50.9,46.0,98,86,70,30.31,30.19,5,0,0,0.00
2013-10-16,57.3,51.5,45.2,51.0,48.3,44.0,100,89,72,30.19,29.95,2,0,0,0.00
2013-10-17,68.2,57.7,45.6,58.0,53.8,45.0,99,88,61,29.94,29.73,8,1,0,0.00
2013-10-18,60.7,55.5,43.1,60.0,49.1,38.0,99,80,60,29.92,29.62,10,2,0,0.05
2013-10-19,62.5,48.6,34.4,46.0,40.5,33.0,98,76,48,30.00,29.77,6,0,0,0.00
2013-10-20,56.1,47.9,34.4,49.0,39.3,32.0,96,74,46,30.05,29.71,8,1,0,0.01
2013-10-21,61.6,46.4,31.6,43.0,38.2,30.0,97,76,49,30.16,30.02,6,1,0,0.00
2013-10-22,59.0,48.2,37.9,50.0,43.7,35.0,98,85,69,30.01,29.74,10,1,0,0.00
2013-10-23,47.1,38.7,29.3,37.0,33.2,28.0,97,82,56,29.82,29.62,4,0,0,0.00
2013-10-24,47.4,39.7,29.2,34.0,28.8,26.0,96,68,45,29.92,29.69,8,1,0,0.00
2013-10-25,45.1,36.9,26.9,35.0,29.0,24.0,96,75,52,30.18,29.92,10,1,0,0.00
2013-10-26,49.4,37.4,24.1,34.0,27.9,23.0,96,72,43,30.18,29.90,16,2,0,0.00
2013-10-27,49.1,43.2,32.8,35.0,32.7,28.0,83,67,51,30.09,29.82,9,1,0,0.00
2013-10-28,52.1,37.9,26.9,36.0,30.0,25.0,96,75,51,30.38,30.09,10,1,0,0.00
2013-10-29,44.1,31.1,22.3,26.0,21.6,19.0,93,71,39,30.48,30.38,3,0,0,0.00
2013-10-30,49.1,34.9,25.9,40.0,30.6,22.0,94,84,69,30.40,30.24,3,0,0,0.00
2013-10-31,57.1,45.1,29.2,57.0,44.6,28.0,99,98,93,30.28,29.82,12,2,0,0.41
2013-11-1,64.3,59.1,52.7,61.0,57.3,50.0,99,93,86,29.81,29.48,21,6,0,0.22
2013-11-2,61.0,48.1,36.3,49.0,42.9,36.0,99,84,54,29.77,29.62,7,0,0,0.00
2013-11-3,42.5,36.6,27.6,41.0,26.4,15.0,97,69,42,30.43,29.77,9,1,0,0.00
2013-11-4,37.9,29.0,22.1,20.0,16.9,15.0,88,62,42,30.74,30.45,6,1,0,0.00
2013-11-5,46.9,33.6,21.5,34.0,27.6,19.0,94,80,57,30.74,30.54,6,0,0,0.00
2013-11-6,56.6,46.6,34.6,46.0,40.8,33.0,95,81,62,30.54,30.06,11,3,0,0.00
2013-11-7,58.5,48.7,34.5,55.0,46.6,29.0,96,92,78,30.05,29.71,10,3,0,0.10
2013-11-8,43.0,33.2,25.2,34.0,26.1,21.0,94,76,55,30.12,29.83,10,1,0,0.00
2013-11-9,39.4,32.3,23.8,29.0,24.4,20.0,87,73,56,30.24,30.05,4,1,0,0.00
2013-11-10,48.3,41.1,36.5,39.0,34.7,30.0,95,78,66,30.04,29.77,10,2,0,0.04
2013-11-11,46.9,40.4,32.8,31.0,28.3,26.0,78,63,46,30.12,29.91,11,3,0,0.00
2013-11-12,43.8,30.0,20.4,36.0,24.2,14.0,94,79,62,30.21,29.90,11,1,0,0.03
2013-11-13,30.8,23.5,14.8,18.0,14.6,12.0,90,70,49,30.33,30.20,11,1,0,0.00
2013-11-14,45.9,35.0,25.1,26.0,21.4,17.0,76,59,44,30.19,30.09,8,2,0,0.01
2013-11-15,57.6,40.0,25.4,28.0,20.4,16.0,80,50,20,30.23,30.14,8,1,0,0.00
2013-11-16,56.0,40.3,30.7,34.0,30.5,27.0,94,71,41,30.35,30.22,5,0,0,0.00
2013-11-17,51.0,43.2,29.7,51.0,41.8,28.0,99,95,86,30.33,29.86,11,1,0,0.00
2013-11-18,59.3,52.8,42.6,59.0,45.9,31.0,100,79,54,29.85,29.55,12,3,0,0.22
2013-11-19,42.2,34.2,25.7,32.0,22.5,17.0,70,63,52,30.31,29.68,14,3,0,0.00
2013-11-20,37.9,26.5,18.1,17.0,15.3,13.0,87,65,36,30.66,30.31,6,1,0,0.01
2013-11-21,42.0,28.5,15.2,31.0,21.2,13.0,94,76,45,30.67,30.42,9,1,0,0.00
2013-11-22,44.2,40.9,36.5,44.0,39.7,31.0,99,95,81,30.41,29.84,4,0,0,0.13
2013-11-23,44.3,34.0,23.1,44.0,26.3,17.0,99,74,53,29.95,29.82,18,3,0,0.00
2013-11-24,22.7,17.8,14.1,18.0,6.4,0.0,91,63,39,30.23,29.82,11,4,0,0.00
2013-11-25,28.2,20.0,10.7,15.0,6.4,-1.0,64,56,41,30.41,30.24,6,2,0,0.00
2013-11-26,34.0,29.6,24.0,33.0,22.7,14.0,97,77,57,30.36,30.05,7,2,0,0.16
2013-11-27,58.9,43.9,31.5,59.0,43.4,30.0,100,98,94,30.04,29.29,16,3,0,1.62
2013-11-28,31.6,24.2,15.8,30.0,15.9,9.0,94,71,49,30.46,29.50,10,3,0,0.00
2013-11-29,29.0,20.5,12.7,16.0,11.8,6.0,93,71,50,30.77,30.46,5,1,0,0.00
2013-11-30,27.1,18.8,6.0,20.0,11.2,3.0,91,73,56,30.82,30.46,4,0,0,0.00
2013-12-1,36.8,31.9,26.5,36.0,30.2,21.0,98,93,79,30.45,30.05,3,0,0,0.05
2013-12-2,36.5,34.0,29.9,36.0,33.8,29.0,99,99,98,30.05,29.94,3,0,0,0.01
2013-12-3,43.9,32.8,26.4,39.0,31.6,26.0,99,95,78,29.99,29.89,5,0,0,0.01
2013-12-4,39.1,29.7,22.8,30.0,26.4,22.0,98,88,67,30.23,29.99,3,0,0,0.00
2013-12-5,52.3,40.0,26.5,52.0,39.4,26.0,100,97,91,30.23,29.95,7,1,0,0.01
2013-12-6,52.8,43.3,31.6,53.0,42.6,31.0,100,97,89,30.17,29.88,6,1,0,0.25
2013-12-7,31.6,27.7,19.1,31.0,26.0,18.0,97,93,81,30.48,30.08,6,1,0,0.02
2013-12-8,25.7,21.2,13.6,21.0,17.5,12.0,95,86,69,30.62,30.48,4,0,0,0.00
2013-12-9,32.5,28.5,21.5,32.0,27.2,17.0,98,95,80,30.52,29.93,6,2,0,0.01
2013-12-10,31.9,27.5,16.6,31.0,24.9,13.0,98,90,82,30.01,29.81,3,1,0,0.00
2013-12-11,25.1,19.7,13.7,20.0,15.8,12.0,93,85,72,30.23,30.01,8,2,0,0.00
2013-12-12,19.7,13.6,5.3,15.0,7.0,1.0,94,76,52,30.30,30.09,6,1,0,0.00
2013-12-13,23.6,16.2,9.9,18.0,10.4,5.0,84,78,72,30.41,30.02,8,2,0,0.00
2013-12-14,14.2,8.9,5.8,12.0,2.2,-5.0,92,75,52,30.61,30.19,8,2,0,0.00
2013-12-15,24.1,20.2,14.1,23.0,18.7,12.0,95,93,90,30.17,29.51,18,2,0,0.00
2013-12-16,21.9,18.2,10.5,20.0,11.6,4.0,92,76,62,30.22,29.76,13,3,0,0.00
2013-12-17,16.8,6.7,-6.1,15.0,3.9,-9.0,93,88,78,30.28,30.01,11,1,0,0.00
2013-12-18,27.0,20.1,14.2,21.0,17.2,12.0,99,88,79,30.11,29.96,8,1,0,0.00
2013-12-19,36.0,28.6,15.0,25.0,22.3,13.0,95,78,64,30.14,30.00,12,2,0,0.02
2013-12-20,48.6,37.5,26.7,34.0,29.8,24.0,91,75,56,30.14,29.95,5,1,0,0.70
2013-12-21,55.8,46.1,33.4,48.0,40.2,30.0,93,80,69,29.99,29.88,7,2,0,0.19
2013-12-22,59.3,48.4,33.5,59.0,47.7,33.0,100,97,92,29.99,29.75,11,3,0,0.04
2013-12-23,37.5,33.6,31.5,37.0,33.3,31.0,99,99,98,30.12,29.98,4,0,0,0.54
2013-12-24,32.7,26.9,20.0,33.0,21.7,13.0,99,81,65,30.23,30.07,8,1,0,0.00
2013-12-25,20.1,14.6,8.8,14.0,4.8,1.0,76,65,51,30.55,30.23,7,1,0,0.00
2013-12-26,28.5,21.3,13.5,27.0,18.0,5.0,94,87,68,30.51,30.13,4,0,0,0.00
2013-12-27,28.6,21.6,9.9,22.0,17.7,8.0,96,85,72,30.31,30.23,5,1,0,0.00
2013-12-28,41.2,30.3,22.1,29.0,24.4,20.0,92,79,60,30.25,30.04,10,2,0,0.04
2013-12-29,38.8,32.6,27.4,35.0,29.9,24.0,97,90,71,30.07,29.49,11,1,0,1.08
2013-12-30,35.0,27.1,11.7,33.0,21.5,8.0,98,80,51,30.17,29.59,10,2,0,0.04
2013-12-31,20.0,13.7,6.5,14.0,8.1,4.0,90,79,63,30.21,30.05,8,1,0,0.00
2014-1-1,22.3,16.0,10.5,12.0,8.1,4.0,86,71,58,30.40,30.21,7,1,0,0.00
2014-1-2,15.7,7.9,-1.7,13.0,4.9,-5.0,89,87,85,30.37,29.87,0,-978,0,0.00